Silver Euplecta — V7IW6 — position and weather

sailwx.info

Track history (hours):
 
Tides and Currents Weather Stations Pressure Air Temp Water Temp Dewpoint Dewpoint Depression Visibility Wind Speed Wind Dir Waves Ship Positions

Silver Euplecta

Last reported at 2017-Nov-15 08:36 UTC. Time now 2017-Nov-23 16:52 UTC.
Position N 24°60' W 113°47'.
Warning: this ship's position is 8 days out of date.

Length 183 m; draft 8.8 m.

Type: Tanker. MMSI: 538006489.

Date/timePositionNaut miles runAvg speedWind from/ knotsBaromVisibWave heightAir tempDewpointWater temp
2017-Nov-15 08:36N 24°60' W 113°47'11012.8
2017-Nov-15 00:02N 26°30' W 114°56'113.8
2017-Nov-15 00:00N 26°30' W 114°57'612.8
2017-Nov-14 23:30N 26°35' W 115°01'712.7
2017-Nov-14 23:00N 26°40' W 115°05'612.8
2017-Nov-14 22:30N 26°45' W 115°09'1913.1
2017-Nov-14 21:03N 27°01' W 115°22'113.4
2017-Nov-14 20:59N 27°01' W 115°23'6413.4
2017-Nov-14 16:13N 27°54' W 116°03'713.2
2017-Nov-14 15:41N 28°00' W 116°08'413.0
2017-Nov-14 15:21N 28°04' W 116°10'613.3
2017-Nov-14 14:52N 28°09' W 116°14'512.7
2017-Nov-14 14:30N 28°13' W 116°16'713.1
2017-Nov-14 14:00N 28°20' W 116°18'713.1
2017-Nov-14 13:30N 28°26' W 116°19'713.1
2017-Nov-14 12:59N 28°33' W 116°20'613.0
2017-Nov-14 12:30N 28°39' W 116°22'1512.9
2017-Nov-14 11:22N 28°53' W 116°27'1712.7
2017-Nov-14 10:01N 29°09' W 116°32'113.0
2017-Nov-14 09:58N 29°10' W 116°32'612.9
2017-Nov-14 09:30N 29°16' W 116°34'1012.9
2017-Nov-14 08:45N 29°25' W 116°37'313.0
2017-Nov-14 08:30N 29°28' W 116°38'713.1
2017-Nov-14 08:00N 29°35' W 116°40'613.0
2017-Nov-14 07:30N 29°41' W 116°42'813.1
2017-Nov-14 06:55N 29°48' W 116°44'513.1
2017-Nov-14 06:30N 29°53' W 116°46'712.8
2017-Nov-14 05:59N 30°00' W 116°47'712.7
2017-Nov-14 05:27N 30°06' W 116°49'612.7
2017-Nov-14 05:00N 30°12' W 116°51'612.7
2017-Nov-14 04:30N 30°18' W 116°53'612.7
2017-Nov-14 04:00N 30°24' W 116°54'1312.8
2017-Nov-14 03:00N 30°37' W 116°58'1012.9
2017-Nov-14 02:15N 30°46' W 117°01'513.0
2017-Nov-14 01:51N 30°51' W 117°02'513.0
2017-Nov-14 01:28N 30°56' W 117°03'613.1
2017-Nov-14 01:00N 31°02' W 117°05'713.3
2017-Nov-14 00:30N 31°09' W 117°06'2014.2
2017-Nov-13 23:08N 31°28' W 117°10'214.6
2017-Nov-13 22:58N 31°30' W 117°11'714.4
2017-Nov-13 22:30N 31°37' W 117°12'713.9
2017-Nov-13 21:59N 31°44' W 117°14'36 1.8
2017-Nov-13 02:00N 32°20' W 117°07'0 0.0
2017-Nov-13 01:30N 32°20' W 117°07'0 0.0
2017-Nov-13 00:57N 32°20' W 117°07'0 0.0
2017-Nov-13 00:27N 32°20' W 117°07'0 0.0
2017-Nov-12 23:57N 32°20' W 117°07'0 0.0
2017-Nov-12 23:30N 32°20' W 117°07'0 0.0
2017-Nov-12 22:51N 32°20' W 117°07'0 0.1
2017-Nov-12 22:30N 32°20' W 117°07'0 0.0
2017-Nov-12 21:48N 32°20' W 117°07'0 0.0
2017-Nov-12 21:30N 32°20' W 117°07'0 0.0
2017-Nov-12 21:00N 32°20' W 117°07'0 0.0
2017-Nov-12 20:15N 32°20' W 117°07'0 0.0
2017-Nov-12 19:57N 32°20' W 117°07'0 0.0
2017-Nov-12 19:30N 32°20' W 117°07'0 0.0
2017-Nov-12 18:45N 32°20' W 117°07'0 0.0
2017-Nov-12 18:27N 32°20' W 117°07'0 0.0
2017-Nov-12 18:00N 32°20' W 117°07'0 0.0
2017-Nov-12 17:30N 32°20' W 117°07'0 0.0
2017-Nov-12 17:00N 32°20' W 117°07'0 0.0
2017-Nov-12 16:30N 32°20' W 117°07'0 0.0
2017-Nov-12 16:00N 32°20' W 117°07'0 0.0
2017-Nov-12 15:27N 32°20' W 117°07'0 0.0
2017-Nov-12 14:57N 32°20' W 117°07'0 0.0
2017-Nov-12 14:30N 32°20' W 117°07'0 0.0
2017-Nov-12 14:00N 32°20' W 117°07'0 0.0
2017-Nov-12 09:48N 32°20' W 117°07'2 0.9
2017-Nov-12 07:02N 32°22' W 117°06'0 1.9
2017-Nov-12 06:54N 32°22' W 117°06'1 0.1
2017-Nov-11 14:37N 32°21' W 117°07'0 0.0
2017-Nov-11 14:25N 32°21' W 117°07'1 0.1
2017-Nov-10 23:46N 32°20' W 117°07'  
2017-Nov-08 15:46N 32°22' W 117°27'311.9
2017-Nov-08 15:30N 32°23' W 117°31'510.9
2017-Nov-08 15:00N 32°24' W 117°37'5 9.9
2017-Nov-08 14:30N 32°25' W 117°43'713.2
2017-Nov-08 13:58N 32°26' W 117°51'613.3
2017-Nov-08 13:30N 32°27' W 117°58'713.3
2017-Nov-08 13:00N 32°28' W 118°06'813.4
2017-Nov-08 12:25N 32°29' W 118°16'513.2
2017-Nov-08 12:00N 32°30' W 118°22'812.3
2017-Nov-08 11:19N 32°31' W 118°32'7212.0
2017-Nov-08 05:19N 33°09' W 119°44'413.4
2017-Nov-08 05:00N 33°13' W 119°47'713.8
2017-Nov-08 04:30N 33°18' W 119°52'1214.0
2017-Nov-08 03:40N 33°28' W 120°00'213.8
2017-Nov-08 03:30N 33°30' W 120°02'713.7
2017-Nov-08 02:59N 33°35' W 120°06'713.3
2017-Nov-08 02:30N 33°41' W 120°11'612.5
2017-Nov-08 02:00N 33°43' W 120°18'612.6
2017-Nov-08 01:30N 33°45' W 120°25'713.1
2017-Nov-08 01:00N 33°47' W 120°33'713.3
2017-Nov-08 00:30N 33°50' W 120°40'812.6
2017-Nov-07 23:51N 33°53' W 120°49'512.7
2017-Nov-07 23:29N 33°56' W 120°54'612.8
2017-Nov-07 23:00N 33°59' W 121°00'612.4
2017-Nov-07 22:30N 34°03' W 121°06'4 7.6
2017-Nov-07 22:00N 34°05' W 121°10'4 8.0
2017-Nov-07 21:30N 34°08' W 121°13'612.7
2017-Nov-07 21:00N 34°12' W 121°19'612.9
2017-Nov-07 20:30N 34°17' W 121°24'612.7
2017-Nov-07 20:00N 34°21' W 121°30'612.9
2017-Nov-07 19:30N 34°25' W 121°36'713.2
2017-Nov-07 19:00N 34°29' W 121°43'712.8
2017-Nov-07 18:27N 34°33' W 121°49'612.8
2017-Nov-07 18:00N 34°37' W 121°55'713.1
2017-Nov-07 17:30N 34°41' W 122°01'612.9
2017-Nov-07 17:00N 34°45' W 122°07'912.6
2017-Nov-07 16:17N 34°51' W 122°15'412.5
2017-Nov-07 15:56N 34°54' W 122°19'10811.9
2017-Nov-07 06:52N 36°34' W 123°10'513.3
2017-Nov-07 06:30N 36°39' W 123°10'1413.1
2017-Nov-07 05:25N 36°53' W 123°11'613.0
2017-Nov-07 04:59N 36°59' W 123°11'3013.0
2017-Nov-07 02:40N 37°29' W 123°10'212.5
2017-Nov-07 02:30N 37°31' W 123°09'612.8
2017-Nov-07 02:00N 37°35' W 123°03'713.1
2017-Nov-07 01:30N 37°38' W 122°56'612.8
2017-Nov-07 01:00N 37°42' W 122°49'611.9
2017-Nov-07 00:30N 37°44' W 122°42'510.1
2017-Nov-07 00:00N 37°46' W 122°36'611.9
2017-Nov-06 23:30N 37°49' W 122°30'5 9.2
2017-Nov-06 23:00N 37°51' W 122°25'5 9.2
2017-Nov-06 22:30N 37°56' W 122°27'4 8.2
2017-Nov-06 22:00N 37°60' W 122°25'4 7.7
2017-Nov-06 21:30N 38°02' W 122°21'4 7.4
2017-Nov-06 21:00N 38°04' W 122°17'1 0.0
2017-Nov-05 17:37N 38°03' W 122°16'0 0.0
2017-Nov-05 17:25N 38°03' W 122°16'0 0.0
2017-Nov-05 16:49N 38°03' W 122°16'0 0.0
2017-Nov-05 16:19N 38°03' W 122°16'  
Track history (hours):
 
Tides and Currents Weather Stations Pressure Air Temp Water Temp Dewpoint Dewpoint Depression Visibility Wind Speed Wind Dir Waves Ship Positions

Silver Euplecta

Last reported at 2017-Nov-15 08:36 UTC. Time now 2017-Nov-23 16:52 UTC.
Position N 24°60' W 113°47'.
Warning: this ship's position is 8 days out of date.

Length 183 m; draft 8.8 m.

Type: Tanker. MMSI: 538006489.

Date/timePositionNaut miles runAvg speedWind from/ knotsBaromVisibWave heightAir tempDewpointWater temp
2017-Nov-15 08:36N 24°60' W 113°47'11012.8
2017-Nov-15 00:02N 26°30' W 114°56'113.8
2017-Nov-15 00:00N 26°30' W 114°57'612.8
2017-Nov-14 23:30N 26°35' W 115°01'712.7
2017-Nov-14 23:00N 26°40' W 115°05'612.8
2017-Nov-14 22:30N 26°45' W 115°09'1913.1
2017-Nov-14 21:03N 27°01' W 115°22'113.4
2017-Nov-14 20:59N 27°01' W 115°23'6413.4
2017-Nov-14 16:13N 27°54' W 116°03'713.2
2017-Nov-14 15:41N 28°00' W 116°08'413.0
2017-Nov-14 15:21N 28°04' W 116°10'613.3
2017-Nov-14 14:52N 28°09' W 116°14'512.7
2017-Nov-14 14:30N 28°13' W 116°16'713.1
2017-Nov-14 14:00N 28°20' W 116°18'713.1
2017-Nov-14 13:30N 28°26' W 116°19'713.1
2017-Nov-14 12:59N 28°33' W 116°20'613.0
2017-Nov-14 12:30N 28°39' W 116°22'1512.9
2017-Nov-14 11:22N 28°53' W 116°27'1712.7
2017-Nov-14 10:01N 29°09' W 116°32'113.0
2017-Nov-14 09:58N 29°10' W 116°32'612.9
2017-Nov-14 09:30N 29°16' W 116°34'1012.9
2017-Nov-14 08:45N 29°25' W 116°37'313.0
2017-Nov-14 08:30N 29°28' W 116°38'713.1
2017-Nov-14 08:00N 29°35' W 116°40'613.0
2017-Nov-14 07:30N 29°41' W 116°42'813.1
2017-Nov-14 06:55N 29°48' W 116°44'513.1
2017-Nov-14 06:30N 29°53' W 116°46'712.8
2017-Nov-14 05:59N 30°00' W 116°47'712.7
2017-Nov-14 05:27N 30°06' W 116°49'612.7
2017-Nov-14 05:00N 30°12' W 116°51'612.7
2017-Nov-14 04:30N 30°18' W 116°53'612.7
2017-Nov-14 04:00N 30°24' W 116°54'1312.8
2017-Nov-14 03:00N 30°37' W 116°58'1012.9
2017-Nov-14 02:15N 30°46' W 117°01'513.0
2017-Nov-14 01:51N 30°51' W 117°02'513.0
2017-Nov-14 01:28N 30°56' W 117°03'613.1
2017-Nov-14 01:00N 31°02' W 117°05'713.3
2017-Nov-14 00:30N 31°09' W 117°06'2014.2
2017-Nov-13 23:08N 31°28' W 117°10'214.6
2017-Nov-13 22:58N 31°30' W 117°11'714.4
2017-Nov-13 22:30N 31°37' W 117°12'713.9
2017-Nov-13 21:59N 31°44' W 117°14'36 1.8
2017-Nov-13 02:00N 32°20' W 117°07'0 0.0
2017-Nov-13 01:30N 32°20' W 117°07'0 0.0
2017-Nov-13 00:57N 32°20' W 117°07'0 0.0
2017-Nov-13 00:27N 32°20' W 117°07'0 0.0
2017-Nov-12 23:57N 32°20' W 117°07'0 0.0
2017-Nov-12 23:30N 32°20' W 117°07'0 0.0
2017-Nov-12 22:51N 32°20' W 117°07'0 0.1
2017-Nov-12 22:30N 32°20' W 117°07'0 0.0
2017-Nov-12 21:48N 32°20' W 117°07'0 0.0
2017-Nov-12 21:30N 32°20' W 117°07'0 0.0
2017-Nov-12 21:00N 32°20' W 117°07'0 0.0
2017-Nov-12 20:15N 32°20' W 117°07'0 0.0
2017-Nov-12 19:57N 32°20' W 117°07'0 0.0
2017-Nov-12 19:30N 32°20' W 117°07'0 0.0
2017-Nov-12 18:45N 32°20' W 117°07'0 0.0
2017-Nov-12 18:27N 32°20' W 117°07'0 0.0
2017-Nov-12 18:00N 32°20' W 117°07'0 0.0
2017-Nov-12 17:30N 32°20' W 117°07'0 0.0
2017-Nov-12 17:00N 32°20' W 117°07'0 0.0
2017-Nov-12 16:30N 32°20' W 117°07'0 0.0
2017-Nov-12 16:00N 32°20' W 117°07'0 0.0
2017-Nov-12 15:27N 32°20' W 117°07'0 0.0
2017-Nov-12 14:57N 32°20' W 117°07'0 0.0
2017-Nov-12 14:30N 32°20' W 117°07'0 0.0
2017-Nov-12 14:00N 32°20' W 117°07'0 0.0
2017-Nov-12 09:48N 32°20' W 117°07'2 0.9
2017-Nov-12 07:02N 32°22' W 117°06'0 1.9
2017-Nov-12 06:54N 32°22' W 117°06'1 0.1
2017-Nov-11 14:37N 32°21' W 117°07'0 0.0
2017-Nov-11 14:25N 32°21' W 117°07'1 0.1
2017-Nov-10 23:46N 32°20' W 117°07'  
2017-Nov-08 15:46N 32°22' W 117°27'311.9
2017-Nov-08 15:30N 32°23' W 117°31'510.9
2017-Nov-08 15:00N 32°24' W 117°37'5 9.9
2017-Nov-08 14:30N 32°25' W 117°43'713.2
2017-Nov-08 13:58N 32°26' W 117°51'613.3
2017-Nov-08 13:30N 32°27' W 117°58'713.3
2017-Nov-08 13:00N 32°28' W 118°06'813.4
2017-Nov-08 12:25N 32°29' W 118°16'513.2
2017-Nov-08 12:00N 32°30' W 118°22'812.3
2017-Nov-08 11:19N 32°31' W 118°32'7212.0
2017-Nov-08 05:19N 33°09' W 119°44'413.4
2017-Nov-08 05:00N 33°13' W 119°47'713.8
2017-Nov-08 04:30N 33°18' W 119°52'1214.0
2017-Nov-08 03:40N 33°28' W 120°00'213.8
2017-Nov-08 03:30N 33°30' W 120°02'713.7
2017-Nov-08 02:59N 33°35' W 120°06'713.3
2017-Nov-08 02:30N 33°41' W 120°11'612.5
2017-Nov-08 02:00N 33°43' W 120°18'612.6
2017-Nov-08 01:30N 33°45' W 120°25'713.1
2017-Nov-08 01:00N 33°47' W 120°33'713.3
2017-Nov-08 00:30N 33°50' W 120°40'812.6
2017-Nov-07 23:51N 33°53' W 120°49'512.7
2017-Nov-07 23:29N 33°56' W 120°54'612.8
2017-Nov-07 23:00N 33°59' W 121°00'612.4
2017-Nov-07 22:30N 34°03' W 121°06'4 7.6
2017-Nov-07 22:00N 34°05' W 121°10'4 8.0
2017-Nov-07 21:30N 34°08' W 121°13'612.7
2017-Nov-07 21:00N 34°12' W 121°19'612.9
2017-Nov-07 20:30N 34°17' W 121°24'612.7
2017-Nov-07 20:00N 34°21' W 121°30'612.9
2017-Nov-07 19:30N 34°25' W 121°36'713.2
2017-Nov-07 19:00N 34°29' W 121°43'712.8
2017-Nov-07 18:27N 34°33' W 121°49'612.8
2017-Nov-07 18:00N 34°37' W 121°55'713.1
2017-Nov-07 17:30N 34°41' W 122°01'612.9
2017-Nov-07 17:00N 34°45' W 122°07'912.6
2017-Nov-07 16:17N 34°51' W 122°15'412.5
2017-Nov-07 15:56N 34°54' W 122°19'10811.9
2017-Nov-07 06:52N 36°34' W 123°10'513.3
2017-Nov-07 06:30N 36°39' W 123°10'1413.1
2017-Nov-07 05:25N 36°53' W 123°11'613.0
2017-Nov-07 04:59N 36°59' W 123°11'3013.0
2017-Nov-07 02:40N 37°29' W 123°10'212.5
2017-Nov-07 02:30N 37°31' W 123°09'612.8
2017-Nov-07 02:00N 37°35' W 123°03'713.1
2017-Nov-07 01:30N 37°38' W 122°56'612.8
2017-Nov-07 01:00N 37°42' W 122°49'611.9
2017-Nov-07 00:30N 37°44' W 122°42'510.1
2017-Nov-07 00:00N 37°46' W 122°36'611.9
2017-Nov-06 23:30N 37°49' W 122°30'5 9.2
2017-Nov-06 23:00N 37°51' W 122°25'5 9.2
2017-Nov-06 22:30N 37°56' W 122°27'4 8.2
2017-Nov-06 22:00N 37°60' W 122°25'4 7.7
2017-Nov-06 21:30N 38°02' W 122°21'4 7.4
2017-Nov-06 21:00N 38°04' W 122°17'1 0.0
2017-Nov-05 17:37N 38°03' W 122°16'0 0.0
2017-Nov-05 17:25N 38°03' W 122°16'0 0.0
2017-Nov-05 16:49N 38°03' W 122°16'0 0.0
2017-Nov-05 16:19N 38°03' W 122°16'  

Dump ship's entire track history